Zakirovskiy Airport

Jump to: basic info | weather | comments

Related pages: nearby airports | nearby navaids

Basic information (top)

Location: lon 43.448002, lat 77.049599, elev 2,038 ft / 621 m msl
Status: small_airport

Weather (top)

Current conditions for Almaty Airport 6nm (11km) S (rec'd 2014/10/23 17:30Z):

UAAA 231730Z 20002MPS 5000 -SHRA BR BKN029CB OVC100 14/11 Q1018 R88/2/0150 NOSIG

Airport forecast for Almaty Airport 6nm (11km) S (rec'd 2014/10/23 12:18Z):

TAF TAF UAAA 231100Z 2312/2412 24006MPS 5000 BR FU SCT033CB BKN100 TX14/2408Z TN06/2401Z 
      TEMPO 2312/2406 28012MPS 2000 SHRA BR SCT006 OVC010CB

Latest comments (top)

No comments yet for Zakirovskiy Airport

More... (top)

See also NOTAMs and nearby airports and navaids, or visit the Zakirovskiy Airport page at the main OurAirports website..